Home > Products > Valid Products > TAF

000
FTUS41 KAKQ 220100 AAA
TAFRIC
TAF AMD
KRIC 220119Z 2201/2224 32008KT P6SM SCT050 BKN100
     FM220900 33010KT 4SM -RA BR BKN025 OVC050
     FM221700 33013G18KT P6SM OVC040=



000
FTUS41 KAKQ 220100 AAA
TAFSBY
TAF AMD
KSBY 220118Z 2201/2224 VRB03KT P6SM BKN100
      TEMPO 2201/2203 VRB15G25KT 3SM TSRA BKN040CB
     FM220300 32010G18KT P6SM BKN050
     FM220500 32008KT P6SM SCT050 OVC100
     FM220900 33008KT 5SM -RA BR BKN015 OVC040
     FM221400 36012KT 5SM -RA BR OVC020
     FM221900 35015G25KT P6SM -RA BKN025 OVC040=



000
FTUS41 KAKQ 212300
TAFRIC
TAF
KRIC 212339Z 2200/2224 31015G25KT P6SM SCT040 OVC100
     FM220030 29010G18KT P6SM BKN100
     FM220130 30008KT P6SM SCT050 BKN100
     FM220900 33010KT 4SM -RA BR BKN025 OVC050
     FM221700 33013G18KT P6SM OVC040=



000
FTUS41 KAKQ 212300
TAFPHF
TAF
KPHF 212339Z 2200/2224 25006KT P6SM SCT050 BKN100
     FM220300 32004KT P6SM BKN050
      TEMPO 2203/2205 32010G18KT -RA
     FM220900 32007KT 5SM -RA BR BKN015
     FM221500 32010G15KT P6SM BKN020
     FM221900 34014G23KT P6SM BKN040=



000
FTUS41 KAKQ 212300
TAFORF
TAF
KORF 212339Z 2200/2224 25004KT P6SM SCT050 BKN080
     FM220400 32010KT P6SM BKN050
      TEMPO 2204/2206 34012G20KT -RA
     FM221000 32008KT P6SM -RA BKN020 OVC040
     FM221500 34012G18KT P6SM -RA BKN025 OVC040
     FM221900 34015G25KT P6SM BKN040=



000
FTUS41 KAKQ 212300
TAFSBY
TAF
KSBY 212339Z 2200/2224 VRB03KT P6SM BKN100
     FM220300 32010G18KT P6SM BKN050
     FM220500 32008KT P6SM SCT050 OVC100
     FM220900 33008KT 5SM -RA BR BKN015 OVC040
     FM221400 36012KT 5SM -RA BR OVC020
     FM221900 35015G25KT P6SM -RA BKN025 OVC040=



000
FTUS41 KAKQ 212300
TAFECG
TAF
KECG 212339Z 2200/2224 27005KT P6SM SCT100 BKN250
     FM220400 30007KT P6SM SCT050 OVC100
      TEMPO 2206/2208 32010G18KT -RA BKN050
     FM221000 30009KT P6SM -RA BKN030 OVC050
     FM221500 29013G18KT P6SM SCT030 BKN050
     FM221800 31016G25KT P6SM BKN050=



000
FTUS41 KAKQ 212300 AAA
TAFRIC
TAF AMD
KRIC 212318Z 2123/2218 VRB03KT P6SM -RA BKN050 OVC100
     FM212330 31015G25KT P6SM SCT040 OVC100
     FM220030 29010G18KT P6SM BKN100
     FM220130 30008KT P6SM SCT050 BKN100
     FM220900 33010KT 4SM -RA BR BKN025 OVC050
     FM221700 33013G18KT P6SM OVC040=



000
FTUS41 KAKQ 212300 AAA
TAFRIC
TAF AMD
KRIC 212318Z 2123/2218 VRB03KT P6SM -RA BKN050 OVC100
     FM212330 31015G25KT P6SM SCT040 OVC100
     FM220030 29010G18KT P6SM BKN100
     FM220130 30008KT P6SM SCT050 BKN100
     FM220900 33010KT 4SM -RA BR BKN025 OVC050
     FM221700 33013G18KT P6SM OVC040=



000
FTUS41 KAKQ 211700 RRA
TAFORF
TAF
KORF 211743Z 2118/2218 25007KT P6SM SCT100 BKN250
     FM220300 32004KT P6SM BKN050
     FM221000 32008KT P6SM BKN020
     FM221500 34012G16KT P6SM BKN020=



000
FTUS41 KAKQ 211700 RRA
TAFECG
TAF
KECG 211743Z 2118/2218 25007KT P6SM SCT100 BKN250
     FM220400 24007KT P6SM SCT050
     FM221000 30009KT P6SM BKN020 BKN080
     FM221500 29013G18KT P6SM BKN025=



000
FTUS41 KAKQ 211700 RRA
TAFSBY
TAF
KSBY 211743Z 2118/2218 25006KT P6SM SCT100 BKN200
     FM212000 26004KT P6SM BKN100
     FM220300 32005KT P6SM BKN050
     FM220900 33008KT 5SM -DZ BR BKN015 OVC040
     FM221500 36012KT P6SM BKN020 OVC040=



000
FTUS41 KAKQ 211700 RRA
TAFPHF
TAF
KPHF 211743Z 2118/2218 25006KT P6SM SCT100 BKN250
     FM220300 32004KT P6SM BKN040
     FM220900 32007KT P6SM BKN015
     FM221500 32010G15KT P6SM BKN020=



000
FTUS41 KAKQ 211700 RRA
TAFRIC
TAF
KRIC 211743Z 2118/2218 26007KT P6SM FEW040 SCT200
     FM212200 29006KT P6SM BKN035 BKN100
     FM220500 33007KT P6SM BKN015
     FM220900 33010KT 4SM -DZ BR BKN010 OVC030
     FM221500 33013G18KT P6SM BKN015 OVC030=



000
FTUS41 KAKQ 211100
TAFRIC
TAF
KRIC 211134Z 2112/2212 22004KT P6SM SCT100
     FM211500 26007KT P6SM SCT100 BKN200
     FM212000 29006KT P6SM BKN100
     FM220000 33005KT P6SM BKN050
     FM220800 33006KT P6SM BKN030=



000
FTUS41 KAKQ 211100
TAFSBY
TAF
KSBY 211134Z 2112/2212 22004KT P6SM BKN100
      TEMPO 2112/2114 5SM -SHRA
     FM211500 25006KT P6SM SCT100 BKN200
     FM212000 26004KT P6SM BKN100
     FM220200 32003KT P6SM BKN050
     FM220800 33005KT P6SM BKN030=



000
FTUS41 KAKQ 211100
TAFECG
TAF
KECG 211134Z 2112/2212 22005KT P6SM BKN100
     FM211500 25007KT P6SM SCT100 BKN250
     FM212000 24007KT P6SM SCT120
     FM220300 30006KT P6SM BKN080
     FM220800 29006KT P6SM SCT050=



000
FTUS41 KAKQ 211100
TAFORF
TAF
KORF 211134Z 2112/2212 23007KT P6SM BKN100
     FM211500 25007KT P6SM SCT100 BKN250
     FM212000 27005KT P6SM SCT100
     FM220200 32004KT P6SM BKN080
     FM220800 32005KT P6SM BKN050=



000
FTUS41 KAKQ 211100
TAFORF
TAF
KORF 211134Z 2112/2212 23007KT P6SM BKN100
     FM211500 25007KT P6SM SCT100 BKN250
     FM212000 27005KT P6SM SCT100
     FM220200 32004KT P6SM BKN080
     FM220800 32005KT P6SM BKN050=



000
FTUS41 KAKQ 211100
TAFPHF
TAF
KPHF 211134Z 2112/2212 23006KT P6SM BKN100
     FM211500 25006KT P6SM SCT100 BKN250
     FM212000 27005KT P6SM SCT100
     FM220200 32004KT P6SM BKN080
     FM220800 32005KT P6SM BKN040=



000
FTUS41 KAKQ 211100
TAFPHF
TAF
KPHF 211134Z 2112/2212 23006KT P6SM BKN100
     FM211500 25006KT P6SM SCT100 BKN250
     FM212000 27005KT P6SM SCT100
     FM220200 32004KT P6SM BKN080
     FM220800 32005KT P6SM BKN040=



000
FTUS41 KAKQ 211100
TAFECG
TAF
KECG 211134Z 2112/2212 22005KT P6SM BKN100
     FM211500 25007KT P6SM SCT100 BKN250
     FM212000 24007KT P6SM SCT120
     FM220300 30006KT P6SM BKN080
     FM220800 29006KT P6SM SCT050=



000
FTUS41 KAKQ 211100
TAFSBY
TAF
KSBY 211134Z 2112/2212 22004KT P6SM BKN100
      TEMPO 2112/2114 5SM -SHRA
     FM211500 25006KT P6SM SCT100 BKN200
     FM212000 26004KT P6SM BKN100
     FM220200 32003KT P6SM BKN050
     FM220800 33005KT P6SM BKN030=



000
FTUS41 KAKQ 211100
TAFRIC
TAF
KRIC 211134Z 2112/2212 22004KT P6SM SCT100
     FM211500 26007KT P6SM SCT100 BKN200
     FM212000 29006KT P6SM BKN100
     FM220000 33005KT P6SM BKN050
     FM220800 33006KT P6SM BKN030=



000
FTUS41 KAKQ 210900 AAB
TAFECG
TAF AMD
KECG 210901Z 2109/2206 21004KT P6SM BKN120
      TEMPO 2109/2112 2SM BR
     FM211500 25007KT P6SM SCT100 BKN250
     FM212000 24007KT P6SM SCT120
     FM220300 30006KT P6SM BKN080=



000
FTUS41 KAKQ 210700 AAA
TAFECG
TAF AMD
KECG 210746Z 2108/2206 21003KT 6SM BR SCT120
      TEMPO 2108/2112 1/2SM FG
     FM211500 25007KT P6SM SCT100 BKN250
     FM212000 24007KT P6SM SCT120
     FM220300 30006KT P6SM BKN080=



000
FTUS41 KAKQ 210500
TAFRIC
TAF
KRIC 210539Z 2106/2206 21004KT P6SM BKN120
     FM211500 27007KT P6SM SCT100 BKN200
     FM212000 29006KT P6SM BKN100
     FM220000 33005KT P6SM BKN050=



000
FTUS41 KAKQ 210500
TAFPHF
TAF
KPHF 210539Z 2106/2206 22006KT P6SM SCT060 BKN120
     FM211500 25006KT P6SM SCT100 BKN250
     FM212000 27005KT P6SM SCT100
     FM220200 32004KT P6SM BKN080=



000
FTUS41 KAKQ 210500
TAFECG
TAF
KECG 210539Z 2106/2206 21005KT P6SM BKN120
     FM211500 25007KT P6SM SCT100 BKN250
     FM212000 24007KT P6SM SCT120
     FM220300 30006KT P6SM BKN080=



000
FTUS41 KAKQ 210500
TAFORF
TAF
KORF 210539Z 2106/2206 22006KT P6SM SCT060 BKN120
     FM211500 25007KT P6SM SCT100 BKN250
     FM212000 27005KT P6SM SCT100
     FM220200 32005KT P6SM BKN080=



000
FTUS41 KAKQ 210500
TAFSBY
TAF
KSBY 210539Z 2106/2206 21003KT P6SM BKN100
     FM211500 25006KT P6SM SCT100 BKN200
     FM212000 26004KT P6SM BKN100
     FM220200 32003KT P6SM BKN050=



000
FTUS41 KAKQ 202300
TAFORF
TAF
KORF 202337Z 2100/2124 20006KT P6SM BKN250
     FM210500 23006KT P6SM SCT120 BKN250
     FM211600 25007KT P6SM SCT060=



000
FTUS41 KAKQ 202300
TAFRIC
TAF
KRIC 202337Z 2100/2124 19003KT P6SM BKN250
     FM210500 20005KT P6SM BKN100
     FM211500 26008KT P6SM SCT100 BKN200
     FM212000 29007KT P6SM BKN050=



000
FTUS41 KAKQ 202300
TAFSBY
TAF
KSBY 202337Z 2100/2124 19003KT P6SM SCT150 BKN250
     FM210800 20003KT P6SM BKN100 OVC200
     FM211300 23005KT P6SM SCT060 BKN120
     FM211800 25007KT P6SM BKN060=



000
FTUS41 KAKQ 202300
TAFECG
TAF
KECG 202337Z 2100/2124 20005KT P6SM BKN250
     FM211600 25007KT P6SM SCT060=



000
FTUS41 KAKQ 202300
TAFPHF
TAF
KPHF 202337Z 2100/2124 20005KT P6SM BKN250
     FM211600 25007KT P6SM SCT060=



000
FTUS41 KAKQ 202100 AAA
TAFSBY
TAF AMD
KSBY 202105Z 2021/2118 21008KT P6SM BKN250
     FM210000 19003KT P6SM OVC120
     FM211300 25007KT P6SM BKN060=



000
FTUS41 KAKQ 201700
TAFPHF
TAF
KPHF 201726Z 2018/2118 20010KT P6SM BKN250
     FM210500 22005KT P6SM BKN120
     FM211100 25007KT P6SM SCT060=



000
FTUS41 KAKQ 201700
TAFECG
TAF
KECG 201726Z 2018/2118 18010KT P6SM BKN250
     FM210500 22005KT P6SM BKN120
     FM211100 25007KT P6SM SCT060=



000
FTUS41 KAKQ 201700
TAFSBY
TAF
KSBY 201726Z 2018/2118 21010G18KT P6SM BKN250
     FM210400 19003KT P6SM OVC120
     FM211300 25007KT P6SM BKN060=



000
FTUS41 KAKQ 201700
TAFORF
TAF
KORF 201726Z 2018/2118 21010KT P6SM BKN250
     FM210500 23006KT P6SM BKN120
     FM211100 25008KT P6SM SCT060=



000
FTUS41 KAKQ 201700
TAFRIC
TAF
KRIC 201726Z 2018/2118 20011KT P6SM BKN250
     FM210300 20005KT P6SM OVC100
     FM211100 26008KT P6SM BKN060=



000
FTUS41 KAKQ 201100
TAFSBY
TAF
KSBY 201120Z 2012/2112 18003KT P6SM SCT250
     FM201500 20010KT P6SM BKN250
     FM210400 19003KT P6SM OVC120=



000
FTUS41 KAKQ 201100
TAFRIC
TAF
KRIC 201120Z 2012/2112 17003KT P6SM SCT250
     FM201500 20010KT P6SM BKN250
     FM210300 20005KT P6SM OVC100=



000
FTUS41 KAKQ 201100
TAFECG
TAF
KECG 201120Z 2012/2112 18008KT P6SM SCT250
     FM210500 22005KT P6SM OVC080=



000
FTUS41 KAKQ 201100
TAFPHF
TAF
KPHF 201120Z 2012/2112 19005KT P6SM SCT250
     FM201500 20010KT P6SM BKN250
     FM210500 22005KT P6SM OVC100=



000
FTUS41 KAKQ 201100
TAFORF
TAF
KORF 201120Z 2012/2112 21010KT P6SM SCT250
     FM210500 23006KT P6SM OVC080=



000
FTUS41 KAKQ 200500 RRA
TAFPHF
TAF
KPHF 200543Z 2006/2106 00000KT P6SM SKC
     FM201400 20010KT P6SM SCT250=



000
FTUS41 KAKQ 200500 RRA
TAFRIC
TAF
KRIC 200543Z 2006/2106 00000KT P6SM SCT250
     FM201400 20010KT P6SM BKN250
     FM210200 20005KT P6SM OVC120=



000
FTUS41 KAKQ 200500 RRA
TAFSBY
TAF
KSBY 200543Z 2006/2106 00000KT P6SM SCT250
     FM201500 20010KT P6SM BKN250
     FM210300 19005KT P6SM OVC150=



000
FTUS41 KAKQ 200500 RRA
TAFECG
TAF
KECG 200543Z 2006/2106 VRB03KT P6SM SKC
     FM201500 18008KT P6SM SCT250=



000
FTUS41 KAKQ 200500 RRA
TAFORF
TAF
KORF 200543Z 2006/2106 01003KT P6SM SKC
     FM201500 20010KT P6SM SCT250=



000
FTUS41 KAKQ 192300
TAFRIC
TAF
KRIC 192320Z 2000/2024 00000KT P6SM SCT250
     FM201400 20008KT P6SM SCT200=



000
FTUS41 KAKQ 192300
TAFPHF
TAF
KPHF 192320Z 2000/2024 00000KT P6SM SCT250
     FM201400 20008KT P6SM SCT200=



000
FTUS41 KAKQ 192300
TAFECG
TAF
KECG 192320Z 2000/2024 VRB04KT P6SM SCT250
     FM201500 18007KT P6SM SCT200=



000
FTUS41 KAKQ 192300
TAFPHF
TAF
KPHF 192320Z 2000/2024 00000KT P6SM SCT250
     FM201400 20008KT P6SM SCT200=



000
FTUS41 KAKQ 192300
TAFSBY
TAF
KSBY 192320Z 2000/2024 00000KT P6SM SCT250
     FM201400 22008KT P6SM SCT200=



000
FTUS41 KAKQ 192300
TAFRIC
TAF
KRIC 192320Z 2000/2024 00000KT P6SM SCT250
     FM201400 20008KT P6SM SCT200=



000
FTUS41 KAKQ 192300
TAFECG
TAF
KECG 192320Z 2000/2024 VRB04KT P6SM SCT250
     FM201500 18007KT P6SM SCT200=



000
FTUS41 KAKQ 192300
TAFORF
TAF
KORF 192320Z 2000/2024 31006KT P6SM SKC
     FM200300 03004KT P6SM SCT250
     FM201400 20008KT P6SM SCT200=



000
FTUS41 KAKQ 192300
TAFSBY
TAF
KSBY 192320Z 2000/2024 00000KT P6SM SCT250
     FM201400 22008KT P6SM SCT200=



000
FTUS41 KAKQ 192300
TAFORF
TAF
KORF 192320Z 2000/2024 31006KT P6SM SKC
     FM200300 03004KT P6SM SCT250
     FM201400 20008KT P6SM SCT200=



000
FTUS41 KAKQ 191900 AAA
TAFRIC
TAF AMD
KRIC 191907Z 1919/2018 32013G20KT P6SM SKC
     FM192100 34009KT P6SM SKC
     FM200000 06003KT P6SM SKC
     FM201300 20006KT P6SM SKC=



000
FTUS41 KAKQ 191700
TAFORF
TAF
KORF 191732Z 1918/2018 33012G20KT P6SM SCT040
     FM192100 36007KT P6SM SKC
     FM200300 03004KT P6SM SKC
     FM201500 19006KT P6SM SKC=



000
FTUS41 KAKQ 191700
TAFECG
TAF
KECG 191732Z 1918/2018 32012G20KT P6SM SCT050
     FM192100 32006KT P6SM SKC
     FM200300 36003KT P6SM SKC
     FM201500 18005KT P6SM SKC=



000
FTUS41 KAKQ 191700
TAFSBY
TAF
KSBY 191732Z 1918/2018 31015G22KT P6SM BKN040
     FM192100 31010KT P6SM SCT050
     FM200000 00000KT P6SM SKC
     FM201400 22005KT P6SM SKC=



000
FTUS41 KAKQ 191700
TAFRIC
TAF
KRIC 191732Z 1918/2018 32013G20KT P6SM SCT050
     FM192000 34005KT P6SM SKC
     FM200000 VRB02KT P6SM SKC
     FM201300 20006KT P6SM SKC=



000
FTUS41 KAKQ 191700
TAFPHF
TAF
KPHF 191732Z 1918/2018 33012G20KT P6SM SCT050
     FM192100 32006KT P6SM SKC
     FM200000 VRB02KT P6SM SKC
     FM201400 20006KT P6SM SKC=



000
FTUS41 KAKQ 191100
TAFORF
TAF
KORF 191121Z 1912/2012 33010KT P6SM BKN060
     FM191400 34012G19KT P6SM SCT040
     FM192100 01007KT P6SM SKC=



000
FTUS41 KAKQ 191100
TAFRIC
TAF
KRIC 191121Z 1912/2012 32009KT P6SM SCT050
     FM191400 32013G20KT P6SM SCT050
     FM192000 34005KT P6SM SKC=



000
FTUS41 KAKQ 191100
TAFSBY
TAF
KSBY 191121Z 1912/2012 31011KT P6SM BKN080
     FM191400 31015G23KT P6SM SCT050
     FM192200 31005KT P6SM SKC=



000
FTUS41 KAKQ 191100
TAFPHF
TAF
KPHF 191121Z 1912/2012 32010KT P6SM BKN060
     FM191400 33013G20KT P6SM SCT050
     FM192200 32006KT P6SM SKC=



000
FTUS41 KAKQ 191100
TAFECG
TAF
KECG 191121Z 1912/2012 31010KT P6SM BKN070
     FM191400 32013G20KT P6SM SCT050
     FM192200 32006KT P6SM SKC=



000
FTUS41 KAKQ 190500
TAFPHF
TAF
KPHF 190532Z 1906/2006 33010KT P6SM BKN070
     FM191400 33013G20KT P6SM SCT050
     FM192100 32006KT P6SM SKC=



000
FTUS41 KAKQ 190500
TAFORF
TAF
KORF 190532Z 1906/2006 35010G17KT P6SM BKN070
     FM191400 34012G19KT P6SM SCT040
     FM192100 01007KT P6SM SKC=



000
FTUS41 KAKQ 190500
TAFECG
TAF
KECG 190532Z 1906/2006 31010KT P6SM BKN070
     FM191400 33013G20KT P6SM SCT050
     FM192100 32006KT P6SM SKC=



000
FTUS41 KAKQ 190500
TAFRIC
TAF
KRIC 190532Z 1906/2006 33009KT P6SM BKN070
     FM191400 32011G18KT P6SM SCT050
     FM192100 34005KT P6SM SKC=



000
FTUS41 KAKQ 190500
TAFSBY
TAF
KSBY 190532Z 1906/2006 31008KT P6SM BKN070
     FM191400 31014G22KT P6SM SCT050
     FM192200 31007KT P6SM SKC=



000
FTUS41 KAKQ 190200 AAA
TAFORF
TAF AMD
KORF 190232Z 1903/1924 33010G16KT P6SM BKN070
     FM191400 34011G19KT P6SM SCT040
     FM192100 33008KT P6SM SKC=



    US Dept of Commerce
    National Oceanic and Atmospheric Administration
    National Weather Service
    1325 East West Highway
    Silver Spring, MD 20910
    Page Author: NWS Internet Services Team
Disclaimer
Information Quality
Credits
Glossary
Privacy Policy
Freedom of Information Act (FOIA)
About Us
Career Opportunities